Time;durP1;ratioP1;P1;durP2;ratioP2;P2;SDS_P1;SDS_P2;PMS_P1;PMS_P2;Temp;Humidity;BMP_temperature;BMP_pressure;BME280_temperature;BME280_humidity;BME280_pressure;Samples;Min_cycle;Max_cycle;Signal;HPM_P1;HPM_P2
2023/04/20 00:01:46;;;;;;;7.77;3.47;;;5.40;99.90;;;;;;5037700;28;20344;-84
2023/04/20 00:04:14;;;;;;;9.50;3.23;;;5.30;99.90;;;;;;5016984;28;20565;-83
2023/04/20 00:06:42;;;;;;;7.97;3.50;;;5.40;99.90;;;;;;5015241;28;20183;-85
2023/04/20 00:09:09;;;;;;;7.53;3.23;;;5.40;99.90;;;;;;5016325;28;20178;-84
2023/04/20 00:11:35;;;;;;;4.97;3.30;;;5.40;99.90;;;;;;5015981;28;20187;-84
2023/04/20 00:14:01;;;;;;;9.20;3.43;;;5.40;99.90;;;;;;5015606;28;20190;-84
2023/04/20 00:16:27;;;;;;;8.07;3.83;;;5.50;99.90;;;;;;5014591;28;20187;-84
2023/04/20 00:18:52;;;;;;;8.83;3.47;;;5.50;99.90;;;;;;5015580;28;20172;-84
2023/04/20 00:21:22;;;;;;;9.77;4.10;;;5.50;99.90;;;;;;5014100;28;20230;-84
2023/04/20 00:23:51;;;;;;;9.53;4.07;;;5.50;99.90;;;;;;5015954;28;20615;-83
2023/04/20 00:26:18;;;;;;;7.67;3.87;;;5.50;99.90;;;;;;5014596;28;20179;-83
2023/04/20 00:28:44;;;;;;;9.37;3.67;;;5.50;99.90;;;;;;5015859;28;20167;-84
2023/04/20 00:31:10;;;;;;;8.20;4.13;;;5.50;99.90;;;;;;5015408;28;20175;-84
2023/04/20 00:33:35;;;;;;;8.50;4.10;;;5.50;99.90;;;;;;5014176;28;20695;-84
2023/04/20 00:36:02;;;;;;;9.13;3.67;;;5.50;99.90;;;;;;5014433;28;20515;-83
2023/04/20 00:38:27;;;;;;;11.23;4.40;;;5.50;99.90;;;;;;5015719;28;20168;-83
2023/04/20 00:40:56;;;;;;;6.03;3.67;;;5.50;99.90;;;;;;5013988;28;20210;-83
2023/04/20 00:43:24;;;;;;;12.10;4.40;;;5.50;99.90;;;;;;5014022;28;20685;-83
2023/04/20 00:45:51;;;;;;;11.60;4.60;;;5.60;99.90;;;;;;5015207;28;20198;-84
2023/04/20 00:48:17;;;;;;;7.20;4.17;;;5.50;99.90;;;;;;5015347;28;20226;-83
2023/04/20 00:50:44;;;;;;;9.53;4.20;;;5.50;99.90;;;;;;5015260;28;20175;-83
2023/04/20 00:53:11;;;;;;;7.83;4.17;;;5.50;99.90;;;;;;5013953;28;20183;-84
2023/04/20 00:55:37;;;;;;;8.67;4.03;;;5.50;99.90;;;;;;5013843;28;20187;-83
2023/04/20 00:58:03;;;;;;;6.93;3.80;;;5.60;99.90;;;;;;5015230;28;20183;-84
2023/04/20 01:00:29;;;;;;;9.80;3.97;;;5.60;99.90;;;;;;5013289;28;20194;-84
2023/04/20 01:02:55;;;;;;;7.23;4.03;;;5.60;99.90;;;;;;5027011;28;20755;-84
2023/04/20 01:05:21;;;;;;;9.97;4.10;;;5.70;99.90;;;;;;5053583;28;20178;-84
2023/04/20 01:07:48;;;;;;;7.47;4.00;;;5.60;99.90;;;;;;5054673;28;20247;-84
2023/04/20 01:10:14;;;;;;;9.23;4.03;;;5.60;99.90;;;;;;5053273;28;20186;-83
2023/04/20 01:12:39;;;;;;;13.13;4.20;;;5.60;99.90;;;;;;5053051;28;20184;-83
2023/04/20 01:15:07;;;;;;;12.27;4.40;;;5.60;99.90;;;;;;5054165;28;20612;-83
2023/04/20 01:17:35;;;;;;;10.17;4.27;;;5.60;99.90;;;;;;5054366;28;20245;-83
2023/04/20 01:20:01;;;;;;;10.90;3.87;;;5.70;99.90;;;;;;5054118;28;20202;-83
2023/04/20 01:22:27;;;;;;;12.37;4.13;;;5.70;99.90;;;;;;5036347;28;20657;-83
2023/04/20 01:24:53;;;;;;;9.50;4.13;;;5.60;99.90;;;;;;5036408;28;20560;-83
2023/04/20 01:27:19;;;;;;;10.00;3.80;;;5.60;99.90;;;;;;5054221;28;20667;-83
2023/04/20 01:29:45;;;;;;;8.57;3.90;;;5.60;99.90;;;;;;5053851;28;20199;-83
2023/04/20 01:32:11;;;;;;;15.20;4.23;;;5.60;99.90;;;;;;5054085;28;20180;-84
2023/04/20 01:34:37;;;;;;;11.80;4.70;;;5.60;99.90;;;;;;5054188;28;20177;-83
2023/04/20 01:37:06;;;;;;;9.13;4.50;;;5.60;99.90;;;;;;5054165;28;20628;-84
2023/04/20 01:39:35;;;;;;;9.47;4.20;;;5.60;99.90;;;;;;5053929;28;20612;-83
2023/04/20 01:42:01;;;;;;;8.80;4.27;;;5.60;99.90;;;;;;5052608;28;20205;-83
2023/04/20 01:44:26;;;;;;;9.23;4.00;;;5.60;99.90;;;;;;5052392;28;20577;-83
2023/04/20 01:46:52;;;;;;;13.03;4.47;;;5.70;99.90;;;;;;5036130;28;20601;-83
2023/04/20 01:49:18;;;;;;;11.37;4.93;;;5.70;99.90;;;;;;5036093;28;20224;-83
2023/04/20 01:51:43;;;;;;;11.50;4.47;;;5.70;99.90;;;;;;5053625;28;20181;-83
2023/04/20 01:54:09;;;;;;;10.33;4.53;;;5.70;99.90;;;;;;5052517;28;20629;-83
2023/04/20 01:56:34;;;;;;;7.93;4.57;;;5.70;99.90;;;;;;5035957;28;20258;-84
2023/04/20 01:59:00;;;;;;;10.33;4.40;;;5.70;99.90;;;;;;5053847;28;20162;-83
2023/04/20 02:01:26;;;;;;;11.47;4.03;;;5.70;99.90;;;;;;5053305;28;20247;-83
2023/04/20 02:03:51;;;;;;;11.47;4.63;;;5.70;99.90;;;;;;5053559;28;20223;-83
2023/04/20 02:06:17;;;;;;;10.07;4.73;;;5.70;99.90;;;;;;5053638;28;20178;-83
2023/04/20 02:08:43;;;;;;;8.43;4.30;;;5.70;99.90;;;;;;5053513;28;20166;-83
2023/04/20 02:11:09;;;;;;;7.30;4.20;;;5.70;99.90;;;;;;5053347;28;20600;-83
2023/04/20 02:13:35;;;;;;;9.73;4.50;;;5.70;99.90;;;;;;5053329;28;20272;-83
2023/04/20 02:16:00;;;;;;;6.77;3.97;;;5.70;99.90;;;;;;5053404;28;20582;-82
2023/04/20 02:18:26;;;;;;;11.93;4.77;;;5.70;99.90;;;;;;5035227;28;20178;-84
2023/04/20 02:20:52;;;;;;;8.23;4.17;;;5.70;99.90;;;;;;5053240;28;20542;-83
2023/04/20 02:23:17;;;;;;;13.17;4.57;;;5.70;99.90;;;;;;5053604;28;20584;-84
2023/04/20 02:25:43;;;;;;;7.40;3.97;;;5.70;99.90;;;;;;5053421;28;20180;-83
2023/04/20 02:28:09;;;;;;;10.63;4.80;;;5.70;99.90;;;;;;5058755;28;20205;-84
2023/04/20 02:30:35;;;;;;;9.93;4.53;;;5.70;99.90;;;;;;5059602;28;20520;-85
2023/04/20 02:33:01;;;;;;;10.40;4.10;;;5.70;99.90;;;;;;5058744;28;20551;-84
2023/04/20 02:35:26;;;;;;;7.87;5.00;;;5.70;99.90;;;;;;5042194;28;20295;-84
2023/04/20 02:37:52;;;;;;;10.00;4.80;;;5.70;99.90;;;;;;5059954;28;20285;-83
2023/04/20 02:40:17;;;;;;;9.37;4.60;;;5.70;99.90;;;;;;5059947;28;20181;-84
2023/04/20 02:42:43;;;;;;;11.30;4.97;;;5.70;99.90;;;;;;5059782;28;20219;-84
2023/04/20 02:45:09;;;;;;;11.73;4.80;;;5.60;99.90;;;;;;5041980;28;20185;-83
2023/04/20 02:47:35;;;;;;;9.50;4.83;;;5.70;99.90;;;;;;5060014;28;20181;-84
2023/04/20 02:50:01;;;;;;;11.50;4.53;;;5.70;99.90;;;;;;5041900;28;20230;-84
2023/04/20 02:54:57;;;;;;;12.97;4.77;;;5.60;99.90;;;;;;5055053;28;20271;-84
2023/04/20 02:57:24;;;;;;;14.50;4.97;;;5.70;99.90;;;;;;5059836;28;20166;-84
2023/04/20 02:59:50;;;;;;;7.87;4.73;;;5.70;99.90;;;;;;5059497;28;20260;-83
2023/04/20 03:02:16;;;;;;;10.73;5.20;;;5.70;99.90;;;;;;5041550;28;20667;-84
2023/04/20 03:04:41;;;;;;;13.73;5.17;;;5.70;99.90;;;;;;5059629;28;20235;-84
2023/04/20 03:07:08;;;;;;;11.60;5.50;;;5.70;99.90;;;;;;5059836;28;20178;-84
2023/04/20 03:09:35;;;;;;;9.53;5.17;;;5.70;99.90;;;;;;5059505;28;20177;-84
2023/04/20 03:12:01;;;;;;;11.03;5.03;;;5.70;99.90;;;;;;5059515;28;20185;-84
2023/04/20 03:14:27;;;;;;;9.63;5.07;;;5.70;99.90;;;;;;5041556;28;20263;-83
2023/04/20 03:16:53;;;;;;;9.70;4.97;;;5.70;99.90;;;;;;5059706;28;20201;-84
2023/04/20 03:19:18;;;;;;;11.37;5.00;;;5.70;99.90;;;;;;5058214;28;20178;-84
2023/04/20 03:21:44;;;;;;;13.13;5.20;;;5.60;99.90;;;;;;5059383;28;20628;-84
2023/04/20 03:24:10;;;;;;;10.90;5.27;;;5.70;99.90;;;;;;5041056;28;20181;-84
2023/04/20 03:26:35;;;;;;;9.43;5.17;;;5.70;99.90;;;;;;5059703;28;20174;-85
2023/04/20 03:29:01;;;;;;;13.00;5.30;;;5.80;99.90;;;;;;5041558;28;20216;-84
2023/04/20 03:31:27;;;;;;;9.27;4.63;;;5.80;99.90;;;;;;5059128;28;20174;-85
2023/04/20 03:33:52;;;;;;;10.57;5.57;;;5.70;99.90;;;;;;5058128;28;20185;-84
2023/04/20 03:36:18;;;;;;;10.80;4.90;;;5.80;99.90;;;;;;5059395;28;20654;-84
2023/04/20 03:38:44;;;;;;;9.73;4.97;;;5.80;99.90;;;;;;5056709;28;20173;-84
2023/04/20 03:41:09;;;;;;;10.27;4.90;;;5.80;99.90;;;;;;5038212;28;20209;-84
2023/04/20 03:43:35;;;;;;;10.37;4.77;;;5.80;99.90;;;;;;5056164;28;20178;-84
2023/04/20 03:46:01;;;;;;;10.87;5.23;;;5.80;99.90;;;;;;5055988;28;20226;-85
2023/04/20 03:48:26;;;;;;;15.90;5.10;;;5.80;99.90;;;;;;5038348;28;20205;-84
2023/04/20 03:50:52;;;;;;;10.60;4.93;;;5.80;99.90;;;;;;5055890;28;20209;-84
2023/04/20 03:53:18;;;;;;;10.37;5.63;;;5.80;99.90;;;;;;5030245;28;20231;-83
2023/04/20 03:55:44;;;;;;;10.00;4.90;;;5.80;99.90;;;;;;5014998;28;20183;-84
2023/04/20 03:58:10;;;;;;;11.27;5.00;;;5.80;99.90;;;;;;5015240;28;20171;-83
2023/04/20 04:00:35;;;;;;;9.97;5.20;;;5.80;99.90;;;;;;5014426;28;20206;-84
2023/04/20 04:03:01;;;;;;;10.57;5.23;;;5.80;99.90;;;;;;5016090;28;20217;-84
2023/04/20 04:05:27;;;;;;;8.83;5.23;;;5.80;99.90;;;;;;5016021;28;20175;-85
2023/04/20 04:07:53;;;;;;;12.23;5.27;;;5.80;99.90;;;;;;5014859;28;20179;-85
2023/04/20 04:10:19;;;;;;;13.10;5.03;;;5.90;99.90;;;;;;5014518;28;20676;-84
2023/04/20 04:12:45;;;;;;;7.70;4.47;;;5.80;99.90;;;;;;5014490;28;20183;-84
2023/04/20 04:15:11;;;;;;;7.97;4.67;;;5.80;99.90;;;;;;5015761;28;20187;-83
2023/04/20 04:17:37;;;;;;;11.17;5.20;;;5.80;99.90;;;;;;5015978;28;20186;-84
2023/04/20 04:20:03;;;;;;;11.77;5.13;;;5.80;99.90;;;;;;5014370;28;20270;-84
2023/04/20 04:22:29;;;;;;;10.93;5.50;;;5.80;99.90;;;;;;5014307;28;20234;-84
2023/04/20 04:24:55;;;;;;;13.47;5.70;;;5.80;99.90;;;;;;5015638;28;20210;-85
2023/04/20 04:27:21;;;;;;;11.93;5.03;;;5.80;99.90;;;;;;5014522;28;20596;-83
2023/04/20 04:29:48;;;;;;;10.27;4.50;;;5.80;99.90;;;;;;5015281;28;20179;-83
2023/04/20 04:32:17;;;;;;;8.20;4.77;;;5.80;99.90;;;;;;5015267;28;20575;-83
2023/04/20 04:34:43;;;;;;;11.77;4.77;;;5.90;99.90;;;;;;5014201;28;20184;-84
2023/04/20 04:37:13;;;;;;;10.20;5.00;;;5.80;99.90;;;;;;5015598;28;20211;-84
2023/04/20 04:39:38;;;;;;;6.83;5.13;;;5.90;99.90;;;;;;5015274;28;20226;-83
2023/04/20 04:42:04;;;;;;;10.03;4.77;;;5.90;99.90;;;;;;5013849;28;20227;-83
2023/04/20 04:44:30;;;;;;;10.60;5.30;;;5.80;99.90;;;;;;5015265;28;20194;-83
2023/04/20 04:46:57;;;;;;;7.63;4.70;;;5.90;99.90;;;;;;5015135;28;20664;-84
2023/04/20 04:49:26;;;;;;;9.60;5.10;;;5.90;99.90;;;;;;5015065;28;20175;-84
2023/04/20 04:51:51;;;;;;;11.63;5.33;;;6.00;99.90;;;;;;5014965;28;20183;-84
2023/04/20 04:54:17;;;;;;;12.13;5.27;;;6.00;99.90;;;;;;5039754;28;20335;-84
2023/04/20 04:56:43;;;;;;;10.37;5.27;;;6.00;99.90;;;;;;5054761;28;20616;-84
2023/04/20 04:59:09;;;;;;;6.40;4.90;;;5.90;99.90;;;;;;5054634;28;20498;-83
2023/04/20 05:01:34;;;;;;;7.73;4.70;;;6.00;99.90;;;;;;5036200;28;20217;-83
2023/04/20 05:04:00;;;;;;;9.50;5.10;;;5.90;99.90;;;;;;5053666;28;20178;-84
2023/04/20 05:06:26;;;;;;;10.93;5.33;;;6.00;99.90;;;;;;5054604;28;20173;-84
2023/04/20 05:08:51;;;;;;;11.50;5.53;;;6.00;99.90;;;;;;5053342;28;20173;-83
2023/04/20 05:11:17;;;;;;;11.03;5.13;;;6.10;99.90;;;;;;5054516;28;20205;-83
2023/04/20 05:13:43;;;;;;;9.23;5.30;;;6.10;99.90;;;;;;5054442;28;20186;-83
2023/04/20 05:16:09;;;;;;;9.00;4.93;;;6.10;99.90;;;;;;5054072;28;20263;-84
2023/04/20 05:18:34;;;;;;;8.40;5.00;;;6.10;99.90;;;;;;5054085;28;20173;-83
2023/04/20 05:21:01;;;;;;;10.87;5.37;;;6.10;99.90;;;;;;5054044;28;20206;-83
2023/04/20 05:23:26;;;;;;;11.07;5.40;;;6.10;99.90;;;;;;5052963;28;20524;-83
2023/04/20 05:25:52;;;;;;;12.17;5.63;;;6.10;99.90;;;;;;5054303;28;20261;-84
2023/04/20 05:28:18;;;;;;;10.67;5.50;;;6.00;99.90;;;;;;5054276;28;20495;-84
2023/04/20 05:30:43;;;;;;;9.40;5.43;;;6.10;99.90;;;;;;5052362;28;20189;-85
2023/04/20 05:33:09;;;;;;;8.80;5.23;;;6.10;99.90;;;;;;5054045;28;20174;-85
2023/04/20 05:35:35;;;;;;;9.60;5.50;;;6.10;99.90;;;;;;5054079;28;20178;-84
2023/04/20 05:38:04;;;;;;;13.73;6.10;;;6.10;99.90;;;;;;5053226;28;20595;-84
2023/04/20 05:40:31;;;;;;;10.90;6.00;;;6.10;99.90;;;;;;5052496;28;20181;-84
2023/04/20 05:42:56;;;;;;;11.43;5.70;;;6.10;99.90;;;;;;5052512;28;20531;-84
2023/04/20 05:45:22;;;;;;;9.77;6.27;;;6.10;99.90;;;;;;5035702;28;20185;-84
2023/04/20 05:47:55;;;;;;;12.70;6.17;;;6.20;99.90;;;;;;5054046;28;20327;-84
2023/04/20 05:50:25;;;;;;;10.13;6.20;;;6.10;99.90;;;;;;5053756;28;20178;-84
2023/04/20 05:52:51;;;;;;;13.10;7.03;;;6.10;99.90;;;;;;5035740;28;20229;-84
2023/04/20 05:55:18;;;;;;;10.27;6.57;;;6.20;99.90;;;;;;5053762;28;20221;-84
2023/04/20 05:57:43;;;;;;;11.47;6.70;;;6.20;99.90;;;;;;5052345;28;20174;-84
2023/04/20 06:00:11;;;;;;;10.23;5.93;;;6.20;99.90;;;;;;5053320;28;20182;-84
2023/04/20 06:02:37;;;;;;;10.20;6.33;;;6.30;99.90;;;;;;5051389;28;20651;-84
2023/04/20 06:05:03;;;;;;;13.57;6.83;;;6.40;99.90;;;;;;5053652;28;20221;-84
2023/04/20 06:07:28;;;;;;;13.97;7.23;;;6.40;99.90;;;;;;5052471;28;20189;-84
2023/04/20 06:09:54;;;;;;;9.97;6.50;;;6.50;99.90;;;;;;5053481;28;20564;-84
2023/04/20 06:12:20;;;;;;;10.93;7.60;;;6.40;99.90;;;;;;5051988;28;20194;-84
2023/04/20 06:14:46;;;;;;;10.53;6.80;;;6.50;99.90;;;;;;5035482;28;20277;-84
2023/04/20 06:17:11;;;;;;;12.80;7.47;;;6.50;99.90;;;;;;5035192;28;20273;-84
2023/04/20 06:19:37;;;;;;;18.13;8.40;;;6.50;99.90;;;;;;5052986;28;20196;-84
2023/04/20 06:22:07;;;;;;;16.13;8.23;;;6.50;99.90;;;;;;5035361;28;20218;-84
2023/04/20 06:24:34;;;;;;;15.47;8.87;;;6.50;99.90;;;;;;5053292;28;20181;-84
2023/04/20 06:27:00;;;;;;;11.60;8.40;;;6.50;99.90;;;;;;5052116;28;20227;-84
2023/04/20 06:29:27;;;;;;;14.00;8.50;;;6.60;99.90;;;;;;5053265;28;20223;-83
2023/04/20 06:31:53;;;;;;;16.00;9.37;;;6.60;99.90;;;;;;5052885;28;20197;-84
2023/04/20 06:34:19;;;;;;;16.60;8.20;;;6.60;99.90;;;;;;5053391;28;20181;-84
2023/04/20 06:36:45;;;;;;;14.73;8.37;;;6.60;99.90;;;;;;5053380;28;20555;-84
2023/04/20 06:39:10;;;;;;;15.30;7.53;;;6.60;99.90;;;;;;5053294;28;20285;-84
2023/04/20 06:41:39;;;;;;;12.37;7.37;;;6.60;99.90;;;;;;5053120;28;20220;-85
2023/04/20 06:44:05;;;;;;;11.83;8.07;;;6.70;99.90;;;;;;5053203;28;20564;-84
2023/04/20 06:46:31;;;;;;;12.43;7.30;;;6.70;99.90;;;;;;5053196;28;20193;-84
2023/04/20 06:48:58;;;;;;;14.00;7.60;;;6.80;99.90;;;;;;5053282;28;20616;-84
2023/04/20 06:51:25;;;;;;;11.10;7.37;;;6.90;99.90;;;;;;5051627;28;20272;-83
2023/04/20 06:53:51;;;;;;;11.43;6.60;;;6.90;99.90;;;;;;5052868;28;20252;-85
2023/04/20 06:56:16;;;;;;;9.40;6.27;;;7.00;99.90;;;;;;5053041;28;20216;-85
2023/04/20 06:58:42;;;;;;;9.03;6.50;;;7.00;99.90;;;;;;5051917;28;20210;-84
2023/04/20 07:01:08;;;;;;;9.67;6.53;;;7.10;99.90;;;;;;5052610;28;20217;-84
2023/04/20 07:03:33;;;;;;;8.70;6.30;;;7.30;99.90;;;;;;5051756;28;20182;-86
2023/04/20 07:05:59;;;;;;;11.43;6.17;;;7.40;99.90;;;;;;5053075;28;20174;-85
2023/04/20 07:08:25;;;;;;;10.90;5.80;;;7.40;99.90;;;;;;5035089;28;20269;-85
2023/04/20 07:10:51;;;;;;;9.70;6.40;;;7.30;99.90;;;;;;5034556;28;20189;-85
2023/04/20 07:13:16;;;;;;;10.07;6.30;;;7.30;99.90;;;;;;5054052;28;20617;-85
2023/04/20 07:15:44;;;;;;;9.60;5.87;;;7.30;99.90;;;;;;5055141;28;20209;-85
2023/04/20 07:18:10;;;;;;;8.07;5.93;;;7.30;99.90;;;;;;5057015;28;20170;-85
2023/04/20 07:20:36;;;;;;;9.77;5.90;;;7.30;99.90;;;;;;5038540;28;20642;-85
2023/04/20 07:23:02;;;;;;;8.80;5.67;;;7.20;99.90;;;;;;5056499;28;20177;-85
2023/04/20 07:25:30;;;;;;;9.90;5.87;;;7.20;99.90;;;;;;5056591;28;20173;-85
2023/04/20 07:27:56;;;;;;;10.17;6.43;;;7.20;99.90;;;;;;5056470;28;20170;-85
2023/04/20 07:30:22;;;;;;;11.03;6.10;;;7.20;99.90;;;;;;5056297;28;20178;-85
2023/04/20 07:32:48;;;;;;;10.40;6.30;;;7.30;99.90;;;;;;5056425;28;20182;-85
2023/04/20 07:35:14;;;;;;;10.37;5.90;;;7.30;99.90;;;;;;5056432;28;20170;-85
2023/04/20 07:37:40;;;;;;;8.27;5.53;;;7.40;99.90;;;;;;5038611;28;20178;-85
2023/04/20 07:40:07;;;;;;;9.57;5.50;;;7.60;99.90;;;;;;5056281;28;20593;-85
2023/04/20 07:42:35;;;;;;;8.33;5.90;;;7.70;99.90;;;;;;5055886;28;20209;-85
2023/04/20 07:45:02;;;;;;;8.27;5.97;;;7.80;99.90;;;;;;5056252;28;20287;-84
2023/04/20 07:47:27;;;;;;;9.67;6.03;;;7.90;99.90;;;;;;5056054;28;20177;-85
2023/04/20 07:49:53;;;;;;;7.27;5.10;;;8.00;99.90;;;;;;5054949;28;20707;-86
2023/04/20 07:52:19;;;;;;;6.80;5.80;;;8.10;99.90;;;;;;5038008;28;20186;-84
2023/04/20 07:54:45;;;;;;;7.77;4.73;;;8.00;99.90;;;;;;5055887;28;20225;-85
2023/04/20 07:57:11;;;;;;;6.00;4.60;;;8.00;99.90;;;;;;5054931;28;20212;-85
2023/04/20 07:59:36;;;;;;;6.37;4.53;;;8.00;99.90;;;;;;5055960;28;20609;-87
2023/04/20 08:02:03;;;;;;;8.83;6.10;;;8.00;99.90;;;;;;5055514;28;20214;-85
2023/04/20 08:04:29;;;;;;;7.53;5.03;;;8.10;99.90;;;;;;5038147;28;20181;-86
2023/04/20 08:06:54;;;;;;;7.17;4.97;;;8.20;99.90;;;;;;5038178;28;20182;-85
2023/04/20 08:09:20;;;;;;;8.10;5.13;;;8.10;99.90;;;;;;5054635;28;20174;-87
2023/04/20 08:11:47;;;;;;;5.90;4.80;;;8.20;99.90;;;;;;5037587;28;20235;-85
2023/04/20 08:14:14;;;;;;;6.43;5.27;;;8.10;99.90;;;;;;5055738;28;20190;-86
2023/04/20 08:16:40;;;;;;;6.13;5.20;;;8.20;99.90;;;;;;5037723;28;20178;-85
2023/04/20 08:19:09;;;;;;;6.17;4.53;;;8.30;99.90;;;;;;5055810;28;20201;-86
2023/04/20 08:21:39;;;;;;;5.80;4.77;;;8.30;99.90;;;;;;5054158;28;20597;-86
2023/04/20 08:24:05;;;;;;;5.90;4.80;;;8.40;99.90;;;;;;5055647;28;20170;-85
2023/04/20 08:26:32;;;;;;;6.30;4.80;;;8.40;99.90;;;;;;5055061;28;20182;-85
2023/04/20 08:28:59;;;;;;;7.03;4.83;;;8.40;99.90;;;;;;5037706;28;20182;-84
2023/04/20 08:31:25;;;;;;;5.57;4.50;;;8.50;99.90;;;;;;5053749;28;20188;-85
2023/04/20 08:33:51;;;;;;;6.30;4.67;;;8.50;99.90;;;;;;5037857;28;20281;-87
2023/04/20 08:36:17;;;;;;;7.07;4.70;;;8.70;99.90;;;;;;5055260;28;20217;-85
2023/04/20 08:38:43;;;;;;;6.33;4.43;;;8.60;99.90;;;;;;5055620;28;20197;-86
2023/04/20 08:41:12;;;;;;;6.03;4.30;;;8.80;99.90;;;;;;5054944;28;20201;-86
2023/04/20 08:43:38;;;;;;;5.73;4.50;;;8.80;99.90;;;;;;5055261;28;20189;-86
2023/04/20 08:46:04;;;;;;;7.90;5.20;;;8.90;99.90;;;;;;5054977;28;20174;-85
2023/04/20 08:48:44;;;;;;;6.07;4.50;;;8.90;99.90;;;;;;5055130;28;20162;-86
2023/04/20 08:51:09;;;;;;;6.47;4.67;;;8.90;99.90;;;;;;5055101;28;20158;-85
2023/04/20 08:53:35;;;;;;;6.30;4.90;;;8.80;99.90;;;;;;5054812;28;20710;-85
2023/04/20 08:56:01;;;;;;;8.07;4.70;;;8.90;99.90;;;;;;5054888;28;20177;-85
2023/04/20 08:58:31;;;;;;;7.30;4.97;;;9.10;99.90;;;;;;5055157;28;20178;-86
2023/04/20 09:00:59;;;;;;;8.63;4.67;;;9.30;99.90;;;;;;5054419;28;20201;-86
2023/04/20 09:03:36;;;;;;;7.83;5.27;;;9.40;99.90;;;;;;5054706;28;20257;-85
2023/04/20 09:06:04;;;;;;;6.33;4.37;;;9.40;99.90;;;;;;5054715;28;20166;-85
2023/04/20 09:08:40;;;;;;;6.23;4.70;;;9.40;99.90;;;;;;5054882;28;20178;-86
2023/04/20 09:11:19;;;;;;;6.82;4.88;;;9.50;99.90;;;;;;5054557;28;20520;-86
2023/04/20 09:13:55;;;;;;;7.88;4.78;;;9.60;99.90;;;;;;5054731;28;20180;-85
2023/04/20 09:16:21;;;;;;;6.93;4.70;;;9.70;99.90;;;;;;5036334;28;20514;-85
2023/04/20 09:18:55;;;;;;;6.90;5.22;;;9.70;99.90;;;;;;5053182;28;20166;-86
2023/04/20 09:21:22;;;;;;;7.03;4.78;;;9.50;99.90;;;;;;5054233;28;20201;-85
2023/04/20 09:24:02;;;;;;;6.47;4.70;;;9.40;99.90;;;;;;5054527;28;20170;-85
2023/04/20 09:26:35;;;;;;;7.03;4.77;;;9.30;99.90;;;;;;5054524;28;20173;-85
2023/04/20 09:29:14;;;;;;;6.38;4.70;;;9.30;99.90;;;;;;5054289;28;20170;-87
2023/04/20 09:31:40;;;;;;;9.23;5.20;;;9.30;99.90;;;;;;5053954;28;20256;-85
2023/04/20 09:34:06;;;;;;;7.18;5.07;;;9.50;99.90;;;;;;5036556;28;20201;-86
2023/04/20 09:36:40;;;;;;;5.97;5.13;;;9.50;99.90;;;;;;5053213;28;20502;-86
2023/04/20 09:39:11;;;;;;;6.63;5.17;;;9.40;99.90;;;;;;5054155;28;20158;-84
2023/04/20 09:41:39;;;;;;;5.73;4.80;;;9.50;99.90;;;;;;5036118;28;20206;-86
2023/04/20 09:44:05;;;;;;;6.30;4.50;;;9.80;99.90;;;;;;5052756;28;20182;-85
2023/04/20 09:46:33;;;;;;;6.25;5.00;;;10.10;99.90;;;;;;5053884;28;20640;-84
2023/04/20 09:49:01;;;;;;;6.25;4.63;;;10.30;99.90;;;;;;5036078;28;20180;-86
2023/04/20 09:51:27;;;;;;;6.47;4.68;;;10.60;99.90;;;;;;5053498;28;20174;-85
2023/04/20 09:53:57;;;;;;;5.93;4.70;;;10.90;99.90;;;;;;5053623;28;20229;-85
2023/04/20 09:56:23;;;;;;;6.25;4.60;;;11.20;99.90;;;;;;5052625;28;20643;-84
2023/04/20 09:58:50;;;;;;;6.35;4.30;;;10.90;99.90;;;;;;5053952;28;20612;-86
2023/04/20 10:01:16;;;;;;;5.22;4.25;;;10.70;99.90;;;;;;5053302;28;20197;-85
2023/04/20 10:03:43;;;;;;;6.57;4.03;;;10.60;99.90;;;;;;5052379;28;20194;-85
2023/04/20 10:06:26;;;;;;;5.28;4.10;;;10.90;99.90;;;;;;5052579;28;20635;-87
2023/04/20 10:08:53;;;;;;;5.00;3.95;;;11.10;99.90;;;;;;5035855;28;20184;-86
2023/04/20 10:11:36;;;;;;;5.22;3.97;;;11.40;99.90;;;;;;5053599;28;20174;-87
2023/04/20 10:14:23;;;;;;;5.55;4.13;;;11.50;99.90;;;;;;5053593;28;20181;-85
2023/04/20 10:17:28;;;;;;;6.63;4.55;;;11.60;99.90;;;;;;5053330;28;20166;-86
2023/04/20 10:19:54;;;;;;;5.40;4.38;;;11.50;99.90;;;;;;5044802;28;20612;-87
2023/04/20 10:22:33;;;;;;;6.70;4.85;;;11.20;99.90;;;;;;5053316;28;20210;-87
2023/04/20 10:25:15;;;;;;;5.47;4.10;;;10.80;99.90;;;;;;5053687;28;20185;-86
2023/04/20 10:27:55;;;;;;;4.93;4.43;;;10.70;99.90;;;;;;5035752;28;20196;-84
2023/04/20 10:30:22;;;;;;;4.88;4.13;;;10.70;99.90;;;;;;5053354;28;20244;-85
2023/04/20 10:32:48;;;;;;;5.03;4.13;;;10.70;99.90;;;;;;5053141;28;20631;-87
2023/04/20 10:35:15;;;;;;;5.82;4.38;;;10.80;99.90;;;;;;5053427;28;20181;-85
2023/04/20 10:37:51;;;;;;;7.13;4.97;;;10.70;99.90;;;;;;5035497;28;20236;-85
2023/04/20 10:40:25;;;;;;;7.55;4.90;;;10.80;99.90;;;;;;5053385;28;20177;-85
2023/04/20 10:42:51;;;;;;;7.43;5.03;;;10.90;99.90;;;;;;5053284;28;20221;-87
2023/04/20 10:45:17;;;;;;;5.30;4.20;;;10.90;99.90;;;;;;5053272;28;20177;-87
2023/04/20 10:47:44;;;;;;;6.40;4.80;;;11.20;99.90;;;;;;5052207;28;20177;-86
2023/04/20 10:50:14;;;;;;;6.22;4.90;;;11.40;99.90;;;;;;5057235;28;20284;-85
2023/04/20 10:52:43;;;;;;;5.70;4.45;;;11.60;99.90;;;;;;5056016;28;20252;-87
2023/04/20 10:55:25;;;;;;;6.80;4.97;;;11.60;99.90;;;;;;5057255;28;20317;-87
2023/04/20 10:57:52;;;;;;;6.57;4.55;;;11.40;99.90;;;;;;5057301;28;20166;-86
2023/04/20 11:00:20;;;;;;;7.10;5.35;;;11.30;99.90;;;;;;5057247;28;20166;-86
2023/04/20 11:02:48;;;;;;;6.82;4.53;;;11.20;99.90;;;;;;5056481;28;20205;-83
2023/04/20 11:05:15;;;;;;;8.80;5.40;;;11.10;99.90;;;;;;5055851;28;20469;-83
2023/04/20 11:08:00;;;;;;;7.90;5.40;;;11.00;99.90;;;;;;5057041;28;20252;-85
2023/04/20 11:10:39;;;;;;;8.70;4.57;;;11.00;99.90;;;;;;5056622;28;20482;-84
2023/04/20 11:13:06;;;;;;;7.88;4.72;;;11.10;99.90;;;;;;5056695;28;20277;-84
2023/04/20 11:15:33;;;;;;;6.18;4.93;;;11.20;99.90;;;;;;5049541;28;20236;-85
2023/04/20 11:18:09;;;;;;;6.90;4.63;;;11.30;99.90;;;;;;5035046;28;20237;-84
2023/04/20 11:20:35;;;;;;;5.93;4.38;;;11.40;99.90;;;;;;5036599;28;20163;-84
2023/04/20 11:23:03;;;;;;;6.05;4.60;;;11.50;99.90;;;;;;5042691;28;20279;-84
2023/04/20 11:25:29;;;;;;;5.10;4.18;;;11.60;99.90;;;;;;5056547;28;20264;-83
2023/04/20 11:28:06;;;;;;;5.05;3.97;;;11.60;99.90;;;;;;5056644;28;20205;-84
2023/04/20 11:30:41;;;;;;;4.93;4.13;;;11.60;99.90;;;;;;5056499;28;20177;-83
2023/04/20 11:33:07;;;;;;;5.18;4.18;;;11.60;99.90;;;;;;5038311;28;20201;-84
2023/04/20 11:35:37;;;;;;;6.35;4.50;;;11.70;99.90;;;;;;5056653;28;20178;-86
2023/04/20 11:38:03;;;;;;;7.40;4.30;;;11.70;99.90;;;;;;5056300;28;20162;-83
2023/04/20 11:40:29;;;;;;;4.85;3.88;;;11.90;99.90;;;;;;5056242;28;20177;-84
2023/04/20 11:42:55;;;;;;;5.40;3.80;;;12.10;99.90;;;;;;5056286;28;20213;-84
2023/04/20 11:45:20;;;;;;;4.95;3.97;;;12.50;99.90;;;;;;5056330;28;20296;-85
2023/04/20 11:47:48;;;;;;;5.72;4.65;;;12.80;99.20;;;;;;5055887;28;20189;-83
2023/04/20 11:50:13;;;;;;;8.13;4.30;;;12.60;99.70;;;;;;5056170;28;20162;-83
2023/04/20 11:52:39;;;;;;;6.05;4.40;;;12.30;99.90;;;;;;5055894;28;20180;-83
2023/04/20 11:55:05;;;;;;;6.22;4.35;;;12.10;99.90;;;;;;5054704;28;20265;-83
2023/04/20 11:57:31;;;;;;;6.50;4.45;;;11.90;99.90;;;;;;5056116;28;20504;-83
2023/04/20 11:59:57;;;;;;;6.45;4.28;;;11.90;99.90;;;;;;5054944;28;20165;-83
2023/04/20 12:02:22;;;;;;;5.05;4.00;;;11.90;99.90;;;;;;5054158;28;20209;-83
2023/04/20 12:04:49;;;;;;;5.50;3.83;;;11.90;99.90;;;;;;5037990;28;20204;-83
2023/04/20 12:07:14;;;;;;;5.70;4.03;;;11.90;99.90;;;;;;5037841;28;20703;-83
2023/04/20 12:09:40;;;;;;;4.82;4.18;;;11.90;99.90;;;;;;5038048;28;20253;-84
2023/04/20 12:12:07;;;;;;;5.32;3.97;;;11.90;99.90;;;;;;5037870;28;20620;-84
2023/04/20 12:14:33;;;;;;;6.78;4.35;;;11.80;99.90;;;;;;5055734;28;20178;-84
2023/04/20 12:17:00;;;;;;;6.05;4.90;;;11.80;99.90;;;;;;5055405;28;20178;-84
2023/04/20 12:19:26;;;;;;;6.97;4.80;;;11.60;99.90;;;;;;5055183;28;20166;-84
2023/04/20 12:21:52;;;;;;;7.50;5.35;;;11.70;99.90;;;;;;5055485;28;20209;-84
2023/04/20 12:24:17;;;;;;;6.57;4.97;;;11.60;99.90;;;;;;5037804;28;20285;-83
2023/04/20 12:26:43;;;;;;;7.07;5.30;;;11.30;99.90;;;;;;5037626;28;20515;-83
2023/04/20 12:29:09;;;;;;;7.07;5.10;;;11.20;99.90;;;;;;5037530;28;20178;-83
2023/04/20 12:31:35;;;;;;;6.65;5.50;;;11.10;99.90;;;;;;5054905;28;20173;-85
2023/04/20 12:34:01;;;;;;;6.88;5.22;;;11.00;99.90;;;;;;5037617;28;20173;-83
2023/04/20 12:36:27;;;;;;;6.65;5.40;;;10.90;99.90;;;;;;5055304;28;20166;-83
2023/04/20 12:38:54;;;;;;;6.65;5.18;;;10.90;99.90;;;;;;5055318;28;20174;-84
2023/04/20 12:41:21;;;;;;;7.13;5.00;;;10.90;99.90;;;;;;5037356;28;20628;-83
2023/04/20 12:43:49;;;;;;;7.80;4.90;;;10.80;99.90;;;;;;5055131;28;20182;-85
2023/04/20 12:46:15;;;;;;;8.25;4.78;;;10.70;99.90;;;;;;5036840;28;20174;-84
2023/04/20 12:48:41;;;;;;;8.77;5.25;;;10.70;99.90;;;;;;5053939;28;20213;-86
2023/04/20 12:51:07;;;;;;;6.55;5.30;;;10.60;99.90;;;;;;5054806;28;20192;-86
2023/04/20 12:53:32;;;;;;;5.65;4.50;;;10.60;99.90;;;;;;5053492;28;20233;-85